createdAt,value
2019-02-07T00:01:30.208Z,9.00
2019-02-07T00:03:59.941Z,10.90
2019-02-07T00:06:29.605Z,7.20
2019-02-07T00:09:00.219Z,6.63
2019-02-07T00:11:30.004Z,5.47
2019-02-07T00:13:59.868Z,9.43
2019-02-07T00:16:29.647Z,5.80
2019-02-07T00:18:59.497Z,4.37
2019-02-07T00:21:29.127Z,3.83
2019-02-07T00:23:58.774Z,5.30
2019-02-07T00:26:28.461Z,3.53
2019-02-07T00:28:58.302Z,7.53
2019-02-07T00:31:28.167Z,4.77
2019-02-07T00:33:57.825Z,4.60
2019-02-07T00:36:27.500Z,5.63
2019-02-07T00:38:57.234Z,6.23
2019-02-07T00:41:26.862Z,6.37
2019-02-07T00:43:57.096Z,3.67
2019-02-07T00:46:26.731Z,6.43
2019-02-07T00:48:56.304Z,4.57
2019-02-07T00:51:25.931Z,4.07
2019-02-07T00:53:55.807Z,5.27
2019-02-07T00:56:25.450Z,3.03
2019-02-07T00:58:55.057Z,3.70
2019-02-07T01:01:24.718Z,4.57
2019-02-07T01:03:54.731Z,4.43
2019-02-07T01:06:24.403Z,3.83
2019-02-07T01:08:54.158Z,4.60
2019-02-07T01:11:23.869Z,6.80
2019-02-07T01:13:53.677Z,3.77
2019-02-07T01:16:23.352Z,5.83
2019-02-07T01:18:52.992Z,6.77
2019-02-07T01:21:22.556Z,7.67
2019-02-07T01:23:52.519Z,5.63
2019-02-07T01:26:22.712Z,7.47
2019-02-07T01:28:52.481Z,4.73
2019-02-07T01:31:22.107Z,5.00
2019-02-07T01:33:51.824Z,5.43
2019-02-07T01:36:21.571Z,3.20
2019-02-07T01:38:51.345Z,3.57
2019-02-07T01:41:21.148Z,3.90
2019-02-07T01:43:50.960Z,2.70
2019-02-07T01:46:20.588Z,4.47
2019-02-07T01:48:50.310Z,3.83
2019-02-07T01:51:19.869Z,3.83
2019-02-07T01:53:49.661Z,4.60
2019-02-07T01:56:19.618Z,3.10
2019-02-07T01:58:49.238Z,3.43
2019-02-07T02:01:18.911Z,2.17
2019-02-07T02:03:48.595Z,2.13
2019-02-07T02:06:18.312Z,2.70
2019-02-07T02:08:47.969Z,4.37
2019-02-07T02:11:17.759Z,2.03
2019-02-07T02:13:47.374Z,3.47
2019-02-07T02:16:17.139Z,3.83
2019-02-07T02:18:46.732Z,2.10
2019-02-07T02:21:16.498Z,4.33
2019-02-07T02:23:46.147Z,3.93
2019-02-07T02:26:15.738Z,3.33
2019-02-07T02:28:45.407Z,3.37
2019-02-07T02:31:15.452Z,2.30
2019-02-07T02:33:45.083Z,3.27
2019-02-07T02:36:14.812Z,2.50
2019-02-07T02:38:44.440Z,3.77
2019-02-07T02:41:14.477Z,2.50
2019-02-07T02:43:44.259Z,4.27
2019-02-07T02:46:14.128Z,3.47
2019-02-07T02:48:43.883Z,3.00
2019-02-07T02:51:13.486Z,5.37
2019-02-07T02:53:43.581Z,3.37
2019-02-07T02:56:13.153Z,4.13
2019-02-07T02:58:42.902Z,4.33
2019-02-07T03:01:31.718Z,6.10
2019-02-07T03:04:32.324Z,6.70
2019-02-07T03:07:31.166Z,9.33
2019-02-07T03:10:14.211Z,10.10
2019-02-07T03:13:12.026Z,8.37
2019-02-07T03:15:58.975Z,7.70
2019-02-07T03:18:47.770Z,8.73
2019-02-07T03:21:36.786Z,9.60
2019-02-07T03:24:24.425Z,8.43
2019-02-07T03:27:16.278Z,8.33
2019-02-07T03:30:03.767Z,12.17
2019-02-07T03:33:04.328Z,10.07
2019-02-07T03:36:08.293Z,10.43
2019-02-07T03:39:09.256Z,10.53
2019-02-07T03:41:57.902Z,9.83
2019-02-07T03:44:49.859Z,12.63
2019-02-07T03:47:47.452Z,13.93
2019-02-07T03:50:34.908Z,20.30
2019-02-07T03:53:22.239Z,24.97
2019-02-07T03:56:10.450Z,26.17
2019-02-07T03:58:51.882Z,30.50
2019-02-07T04:01:40.378Z,33.30
2019-02-07T04:04:28.001Z,33.83
2019-02-07T04:07:19.650Z,31.00
2019-02-07T04:10:02.983Z,31.70
2019-02-07T04:12:57.442Z,33.43
2019-02-07T04:15:44.739Z,31.97
2019-02-07T04:18:51.657Z,28.57
2019-02-07T04:21:38.739Z,25.87
2019-02-07T04:24:25.962Z,21.43
2019-02-07T04:27:13.164Z,19.40
2019-02-07T04:29:50.301Z,21.17
2019-02-07T04:32:44.622Z,19.73
2019-02-07T04:35:33.040Z,16.87
2019-02-07T04:38:24.633Z,17.83
2019-02-07T04:41:18.501Z,14.63
2019-02-07T04:44:07.247Z,17.97
2019-02-07T04:47:07.801Z,18.47
2019-02-07T04:50:02.728Z,20.30
2019-02-07T04:52:55.406Z,21.10
2019-02-07T04:55:53.099Z,18.30
2019-02-07T04:58:41.583Z,20.03
2019-02-07T05:01:28.937Z,18.90
2019-02-07T05:04:10.481Z,21.70
2019-02-07T05:07:11.217Z,21.90
2019-02-07T05:10:00.942Z,28.50
2019-02-07T05:12:44.729Z,27.07
2019-02-07T05:15:48.443Z,33.23
2019-02-07T05:18:36.195Z,27.20
2019-02-07T05:21:30.617Z,29.67
2019-02-07T05:24:22.431Z,21.57
2019-02-07T05:27:06.171Z,24.73
2019-02-07T05:29:54.849Z,23.50
2019-02-07T05:32:52.384Z,24.83
2019-02-07T05:35:53.455Z,23.43
2019-02-07T05:38:41.919Z,20.57
2019-02-07T05:41:27.322Z,20.43
2019-02-07T05:44:30.957Z,23.97
2019-02-07T05:47:19.267Z,23.87
2019-02-07T05:50:06.049Z,22.40
2019-02-07T05:53:01.776Z,24.70
2019-02-07T05:55:48.913Z,26.53
2019-02-07T05:58:37.674Z,25.23
2019-02-07T06:01:24.995Z,27.73
2019-02-07T06:04:09.692Z,21.77
2019-02-07T06:07:10.822Z,26.07
2019-02-07T06:10:08.240Z,25.60
2019-02-07T06:13:01.229Z,25.20
2019-02-07T06:16:00.304Z,21.90
2019-02-07T06:18:52.017Z,23.60
2019-02-07T06:21:43.386Z,27.73
2019-02-07T06:24:35.298Z,33.80
2019-02-07T06:27:22.846Z,31.83
2019-02-07T06:30:17.647Z,32.77
2019-02-07T06:33:05.281Z,90.57
2019-02-07T06:35:53.862Z,32.70
2019-02-07T06:38:34.811Z,23.10
2019-02-07T06:41:22.603Z,25.67
2019-02-07T06:44:10.501Z,30.80
2019-02-07T06:47:13.567Z,29.23
2019-02-07T06:50:10.952Z,31.47
2019-02-07T06:53:02.651Z,31.20
2019-02-07T06:56:06.427Z,36.73
2019-02-07T06:58:55.356Z,28.47
2019-02-07T07:01:53.451Z,24.43
2019-02-07T07:04:40.945Z,24.03
2019-02-07T07:07:33.286Z,17.90
2019-02-07T07:10:30.961Z,19.47
2019-02-07T07:13:18.022Z,14.60
2019-02-07T07:16:05.387Z,12.93
2019-02-07T07:18:52.683Z,18.70
2019-02-07T07:21:39.768Z,12.37
2019-02-07T07:24:28.275Z,11.03
2019-02-07T07:27:19.842Z,14.03
2019-02-07T07:30:11.724Z,15.70
2019-02-07T07:33:02.514Z,13.70
2019-02-07T07:35:57.138Z,18.93
2019-02-07T07:38:44.697Z,20.33
2019-02-07T07:41:32.697Z,23.13
2019-02-07T07:44:20.327Z,39.47
2019-02-07T07:47:07.266Z,22.63
2019-02-07T07:49:54.957Z,19.27
2019-02-07T07:52:52.707Z,21.23
2019-02-07T07:55:50.064Z,22.93
2019-02-07T07:58:50.544Z,23.37
2019-02-07T08:01:42.452Z,22.67
2019-02-07T08:04:40.326Z,27.17
2019-02-07T08:07:31.479Z,21.07
2019-02-07T08:10:18.176Z,26.77
2019-02-07T08:13:07.061Z,21.93
2019-02-07T08:15:58.770Z,23.33
2019-02-07T08:18:50.856Z,18.87
2019-02-07T08:21:33.940Z,20.10
2019-02-07T08:24:22.032Z,23.17
2019-02-07T08:27:16.617Z,18.07
2019-02-07T08:30:13.870Z,23.50
2019-02-07T08:33:00.436Z,18.47
2019-02-07T08:35:47.601Z,106.43
2019-02-07T08:38:35.214Z,23.00
2019-02-07T08:41:22.749Z,21.20
2019-02-07T08:44:15.809Z,18.07
2019-02-07T08:47:16.669Z,11.80
2019-02-07T08:50:10.013Z,17.33
2019-02-07T08:53:01.710Z,16.10
2019-02-07T08:55:48.993Z,16.40
2019-02-07T08:58:49.843Z,10.03
2019-02-07T09:01:53.496Z,6.13
2019-02-07T09:04:41.224Z,9.37
2019-02-07T09:07:33.064Z,9.67
2019-02-07T09:10:17.789Z,9.90
2019-02-07T09:13:04.957Z,10.90
2019-02-07T09:15:56.624Z,11.93
2019-02-07T09:18:43.768Z,13.37
2019-02-07T09:21:41.563Z,17.70
2019-02-07T09:24:39.698Z,7.83
2019-02-07T09:27:40.667Z,12.30
2019-02-07T09:30:35.090Z,9.20
2019-02-07T09:33:29.726Z,15.40
2019-02-07T09:36:18.213Z,14.53
2019-02-07T09:39:25.122Z,13.27
2019-02-07T09:42:19.840Z,14.87
2019-02-07T09:45:07.325Z,12.90
2019-02-07T09:47:53.994Z,13.83
2019-02-07T09:50:51.836Z,14.07
2019-02-07T09:53:44.834Z,17.77
2019-02-07T09:56:42.222Z,15.90
2019-02-07T09:59:46.276Z,16.60
2019-02-07T10:02:39.898Z,14.13
2019-02-07T10:05:29.599Z,16.43
2019-02-07T10:08:17.950Z,15.63
2019-02-07T10:11:12.468Z,24.70
2019-02-07T10:13:56.057Z,34.23
2019-02-07T10:16:53.867Z,24.27
2019-02-07T10:19:41.218Z,13.80
2019-02-07T10:22:28.073Z,14.47
2019-02-07T10:25:19.794Z,10.77
2019-02-07T10:28:10.452Z,13.43
2019-02-07T10:31:08.181Z,12.53
2019-02-07T10:33:55.540Z,13.97
2019-02-07T10:36:47.296Z,13.20
2019-02-07T10:39:38.492Z,12.27
2019-02-07T10:42:29.374Z,11.00
2019-02-07T10:45:19.307Z,14.17
2019-02-07T10:48:07.957Z,13.73
2019-02-07T10:50:59.484Z,13.80
2019-02-07T10:53:51.252Z,11.30
2019-02-07T10:56:49.085Z,13.50
2019-02-07T10:59:37.735Z,14.43
2019-02-07T11:02:33.643Z,11.30
2019-02-07T11:05:31.120Z,15.73
2019-02-07T11:08:37.698Z,14.00
2019-02-07T11:11:28.985Z,16.60
2019-02-07T11:14:29.958Z,14.47
2019-02-07T11:17:27.627Z,11.10
2019-02-07T11:20:16.465Z,14.63
2019-02-07T11:23:03.904Z,11.87
2019-02-07T11:25:52.319Z,13.00
2019-02-07T11:28:45.725Z,16.77
2019-02-07T11:31:25.529Z,10.97
2019-02-07T11:34:06.872Z,9.77
2019-02-07T11:36:54.050Z,9.93
2019-02-07T11:39:42.271Z,13.20
2019-02-07T11:42:29.703Z,12.30
2019-02-07T11:45:17.593Z,13.83
2019-02-07T11:48:12.250Z,17.13
2019-02-07T11:50:56.165Z,17.07
2019-02-07T11:53:44.784Z,15.67
2019-02-07T11:56:34.004Z,14.63
2019-02-07T11:59:21.284Z,17.20
2019-02-07T12:02:08.811Z,15.23
2019-02-07T12:05:09.758Z,12.63
2019-02-07T12:08:07.577Z,12.67
2019-02-07T12:10:56.073Z,12.73
2019-02-07T12:13:43.841Z,15.60
2019-02-07T12:16:42.749Z,18.07
2019-02-07T12:19:30.137Z,12.00
2019-02-07T12:22:37.533Z,10.83
2019-02-07T12:25:41.710Z,10.57
2019-02-07T12:28:28.947Z,9.37
2019-02-07T12:31:12.198Z,9.77
2019-02-07T12:34:06.790Z,12.33
2019-02-07T12:37:13.939Z,12.17
2019-02-07T12:39:54.937Z,11.60
2019-02-07T12:42:55.439Z,9.67
2019-02-07T12:45:54.157Z,9.17
2019-02-07T12:48:45.578Z,10.87
2019-02-07T12:51:32.129Z,14.17
2019-02-07T12:54:20.453Z,11.77
2019-02-07T12:57:07.833Z,10.43
2019-02-07T12:59:56.191Z,12.67
2019-02-07T13:02:37.837Z,16.37
2019-02-07T13:05:48.014Z,15.47
2019-02-07T13:08:40.034Z,13.70
2019-02-07T13:11:32.645Z,14.40
2019-02-07T13:14:36.271Z,16.27
2019-02-07T13:17:25.455Z,12.87
2019-02-07T13:20:05.618Z,17.50
2019-02-07T13:23:00.167Z,19.20
2019-02-07T13:25:51.924Z,17.03
2019-02-07T13:28:39.271Z,15.17
2019-02-07T13:31:46.409Z,14.47
2019-02-07T13:34:33.857Z,14.90
2019-02-07T13:37:40.745Z,14.40
2019-02-07T13:40:38.941Z,15.20
2019-02-07T13:43:37.094Z,16.37
2019-02-07T13:46:35.404Z,13.47
2019-02-07T13:49:26.220Z,17.10
2019-02-07T13:52:09.892Z,14.37
2019-02-07T13:54:59.101Z,14.93
2019-02-07T13:57:47.387Z,20.10
2019-02-07T14:00:36.799Z,13.00
2019-02-07T14:03:28.936Z,16.93
2019-02-07T14:06:17.682Z,15.53
2019-02-07T14:09:06.167Z,18.20
2019-02-07T14:11:54.777Z,20.07
2019-02-07T14:14:42.208Z,17.00
2019-02-07T14:17:28.625Z,17.63
2019-02-07T14:20:11.273Z,22.33
2019-02-07T14:22:58.682Z,20.73
2019-02-07T14:25:46.175Z,26.90
2019-02-07T14:28:28.416Z,18.27
2019-02-07T14:31:15.786Z,29.67
2019-02-07T14:34:10.436Z,26.27
2019-02-07T14:36:59.057Z,27.50
2019-02-07T14:39:50.759Z,31.03
2019-02-07T14:42:39.330Z,27.47
2019-02-07T14:45:30.374Z,33.40
2019-02-07T14:48:01.373Z,33.57
2019-02-07T14:50:31.042Z,28.53
2019-02-07T14:53:02.064Z,26.17
2019-02-07T14:55:31.838Z,25.87
2019-02-07T14:58:01.475Z,23.23
2019-02-07T15:00:31.142Z,35.13
2019-02-07T15:03:00.700Z,19.73
2019-02-07T15:05:31.480Z,22.70
2019-02-07T15:08:01.530Z,25.33
2019-02-07T15:10:31.208Z,21.93
2019-02-07T15:13:01.414Z,27.00
2019-02-07T15:15:30.979Z,26.17
2019-02-07T15:18:00.712Z,27.40
2019-02-07T15:20:30.590Z,26.63
2019-02-07T15:23:00.546Z,24.07
2019-02-07T15:25:30.280Z,26.97
2019-02-07T15:28:00.120Z,32.37
2019-02-07T15:30:29.793Z,37.80
2019-02-07T15:32:59.518Z,28.33
2019-02-07T15:35:32.430Z,30.30
2019-02-07T15:38:02.055Z,28.33
2019-02-07T15:40:31.825Z,34.53
2019-02-07T15:43:01.617Z,28.57
2019-02-07T15:45:31.330Z,35.57
2019-02-07T15:48:01.031Z,38.07
2019-02-07T15:50:37.536Z,40.73
2019-02-07T15:53:03.453Z,31.40
2019-02-07T15:55:33.403Z,28.50
2019-02-07T15:58:02.997Z,30.13
2019-02-07T16:01:03.973Z,36.87
2019-02-07T16:03:52.569Z,60.60
2019-02-07T16:06:22.472Z,42.90
2019-02-07T16:08:52.115Z,49.97
2019-02-07T16:11:21.775Z,45.53
2019-02-07T16:13:51.667Z,43.70
2019-02-07T16:16:21.505Z,36.13
2019-02-07T16:18:51.327Z,57.17
2019-02-07T16:21:21.001Z,32.37
2019-02-07T16:23:50.667Z,32.17
2019-02-07T16:26:20.351Z,35.93
2019-02-07T16:28:50.223Z,33.20
2019-02-07T16:31:20.065Z,33.60
2019-02-07T16:33:49.662Z,30.77
2019-02-07T16:36:19.515Z,33.73
2019-02-07T16:38:49.526Z,33.93
2019-02-07T16:41:19.188Z,41.77
2019-02-07T16:43:49.038Z,92.10
2019-02-07T16:46:19.099Z,70.63
2019-02-07T16:48:48.844Z,47.70
2019-02-07T16:51:18.840Z,43.77
2019-02-07T16:53:48.750Z,39.00
2019-02-07T16:56:18.598Z,26.93
2019-02-07T16:58:48.325Z,31.77
2019-02-07T17:01:18.202Z,27.30
2019-02-07T17:03:48.787Z,29.17
2019-02-07T17:06:18.783Z,24.30
2019-02-07T17:08:48.616Z,27.53
2019-02-07T17:11:19.271Z,27.97
2019-02-07T17:13:48.942Z,24.67
2019-02-07T17:16:18.878Z,33.27
2019-02-07T17:18:48.682Z,23.50
2019-02-07T17:21:18.893Z,25.13
2019-02-07T17:23:48.799Z,40.10
2019-02-07T17:26:18.416Z,83.50
2019-02-07T17:28:48.172Z,35.20
2019-02-07T17:31:17.930Z,38.17
2019-02-07T17:33:47.778Z,73.17
2019-02-07T17:36:17.909Z,37.97
2019-02-07T17:38:47.638Z,42.13
2019-02-07T17:41:17.306Z,44.87
2019-02-07T17:43:46.974Z,39.50
2019-02-07T17:46:16.491Z,39.00
2019-02-07T17:48:46.238Z,38.00
2019-02-07T17:51:22.974Z,40.33
2019-02-07T17:53:47.592Z,38.03
2019-02-07T17:56:17.278Z,41.60
2019-02-07T17:58:47.046Z,52.37
2019-02-07T18:01:16.879Z,53.20
2019-02-07T18:03:46.494Z,37.23
2019-02-07T18:06:16.731Z,43.87
2019-02-07T18:08:46.508Z,34.07
2019-02-07T18:11:16.179Z,34.67
2019-02-07T18:13:45.928Z,40.13
2019-02-07T18:16:17.352Z,39.30
2019-02-07T18:18:47.067Z,41.03
2019-02-07T18:21:16.707Z,52.07
2019-02-07T18:23:48.094Z,43.03
2019-02-07T18:26:17.724Z,37.37
2019-02-07T18:28:47.511Z,37.00
2019-02-07T18:31:18.462Z,35.70
2019-02-07T18:33:50.299Z,43.47
2019-02-07T18:36:19.975Z,41.50
2019-02-07T18:38:49.861Z,45.10
2019-02-07T18:41:19.526Z,44.57
2019-02-07T18:43:51.163Z,49.40
2019-02-07T18:46:20.827Z,45.30
2019-02-07T18:48:50.669Z,57.97
2019-02-07T18:51:20.342Z,45.17
2019-02-07T18:53:49.836Z,56.77
2019-02-07T18:56:19.365Z,42.50
2019-02-07T18:58:49.108Z,63.87
2019-02-07T19:01:18.976Z,37.20
2019-02-07T19:03:49.034Z,35.37
2019-02-07T19:06:18.777Z,33.43
2019-02-07T19:08:48.461Z,39.67
2019-02-07T19:11:18.224Z,38.70
2019-02-07T19:13:47.958Z,32.93
2019-02-07T19:16:19.206Z,31.77
2019-02-07T19:18:49.322Z,43.13
2019-02-07T19:21:19.040Z,41.50
2019-02-07T19:23:48.893Z,50.63
2019-02-07T19:26:18.531Z,50.47
2019-02-07T19:28:48.362Z,47.17
2019-02-07T19:31:17.992Z,59.40
2019-02-07T19:33:47.819Z,56.37
2019-02-07T19:36:17.312Z,53.13
2019-02-07T19:38:47.154Z,55.07
2019-02-07T19:41:17.031Z,48.07
2019-02-07T19:43:46.790Z,42.63
2019-02-07T19:46:16.459Z,35.80
2019-02-07T19:48:46.188Z,38.17
2019-02-07T19:51:15.995Z,50.47
2019-02-07T19:53:45.786Z,38.33
2019-02-07T19:56:15.435Z,43.07
2019-02-07T19:58:45.096Z,37.23
2019-02-07T20:01:15.028Z,42.00
2019-02-07T20:03:44.921Z,39.83
2019-02-07T20:06:15.112Z,43.97
2019-02-07T20:08:44.826Z,47.37
2019-02-07T20:11:14.650Z,36.87
2019-02-07T20:13:44.350Z,40.57
2019-02-07T20:16:14.098Z,48.00
2019-02-07T20:18:44.090Z,39.90
2019-02-07T20:21:13.860Z,42.13
2019-02-07T20:23:43.448Z,42.07
2019-02-07T20:26:13.109Z,40.30
2019-02-07T20:28:42.739Z,37.47
2019-02-07T20:31:12.333Z,39.87
2019-02-07T20:33:42.086Z,43.97
2019-02-07T20:36:11.858Z,42.47
2019-02-07T20:38:41.571Z,38.80
2019-02-07T20:41:11.072Z,39.43
2019-02-07T20:43:40.727Z,38.87
2019-02-07T20:46:10.308Z,45.03
2019-02-07T20:48:40.034Z,51.27
2019-02-07T20:51:09.991Z,58.73
2019-02-07T20:53:39.750Z,82.90
2019-02-07T20:56:09.502Z,74.30
2019-02-07T20:58:39.119Z,71.50
2019-02-07T21:01:09.082Z,71.47
2019-02-07T21:03:38.891Z,70.57
2019-02-07T21:06:08.623Z,70.20
2019-02-07T21:08:38.251Z,139.00
2019-02-07T21:11:09.426Z,202.97
2019-02-07T21:13:39.214Z,200.00
2019-02-07T21:16:09.028Z,170.30
2019-02-07T21:18:38.825Z,151.63
2019-02-07T21:21:08.828Z,102.63
2019-02-07T21:23:38.375Z,80.43
2019-02-07T21:26:08.100Z,80.23
2019-02-07T21:28:37.721Z,84.60
2019-02-07T21:31:07.646Z,83.00
2019-02-07T21:33:37.838Z,82.40
2019-02-07T21:36:07.617Z,70.07
2019-02-07T21:38:37.581Z,68.60
2019-02-07T21:41:07.215Z,70.93
2019-02-07T21:43:36.863Z,74.70
2019-02-07T21:46:08.915Z,76.43
2019-02-07T21:48:38.717Z,84.87
2019-02-07T21:51:08.517Z,82.87
2019-02-07T21:53:38.639Z,91.03
2019-02-07T21:56:08.289Z,75.27
2019-02-07T21:58:37.979Z,85.27
2019-02-07T22:01:07.786Z,69.00
2019-02-07T22:03:37.620Z,67.60
2019-02-07T22:06:07.178Z,62.47
2019-02-07T22:08:37.203Z,66.20
2019-02-07T22:11:07.150Z,57.43
2019-02-07T22:13:36.916Z,60.90
2019-02-07T22:16:06.708Z,56.23
2019-02-07T22:18:36.351Z,62.00
2019-02-07T22:21:06.083Z,53.63
2019-02-07T22:23:36.025Z,57.77
2019-02-07T22:26:06.256Z,51.27
2019-02-07T22:28:35.880Z,46.30
2019-02-07T22:31:05.857Z,44.07
2019-02-07T22:33:35.642Z,42.30
2019-02-07T22:36:05.717Z,50.77
2019-02-07T22:38:35.555Z,42.50
2019-02-07T22:41:05.302Z,55.07
2019-02-07T22:43:34.910Z,51.03
2019-02-07T22:46:04.865Z,46.27
2019-02-07T22:48:34.609Z,49.30
2019-02-07T22:51:04.645Z,50.63
2019-02-07T22:53:34.230Z,53.10
2019-02-07T22:56:04.052Z,59.47
2019-02-07T22:58:34.033Z,56.93
2019-02-07T23:01:36.548Z,55.20
2019-02-07T23:04:09.050Z,52.27
2019-02-07T23:06:38.897Z,55.17
2019-02-07T23:09:15.400Z,54.73
2019-02-07T23:11:45.237Z,56.37
2019-02-07T23:14:15.114Z,56.83
2019-02-07T23:16:45.123Z,49.63
2019-02-07T23:19:14.904Z,61.10
2019-02-07T23:21:44.617Z,53.43
2019-02-07T23:24:14.504Z,53.43
2019-02-07T23:26:44.208Z,50.00
2019-02-07T23:29:13.951Z,51.67
2019-02-07T23:31:43.646Z,49.87
2019-02-07T23:34:13.328Z,49.33
2019-02-07T23:36:43.338Z,50.20
2019-02-07T23:39:13.542Z,49.40
2019-02-07T23:41:43.311Z,48.30
2019-02-07T23:44:13.027Z,51.83
2019-02-07T23:46:42.799Z,55.83
2019-02-07T23:49:12.524Z,54.57
2019-02-07T23:51:42.211Z,54.17
2019-02-07T23:54:12.192Z,57.50
2019-02-07T23:56:41.990Z,55.50
2019-02-07T23:59:11.899Z,54.57
